sensor_id;sensor_type;location;lat;lon;timestamp;pressure;altitude;pressure_sealevel;temperature;humidity
74474;BME280;62922;-6.168;106.796;2023-05-28T11:06:16;100820.44;;;32.25;61.25
74474;BME280;62922;-6.168;106.796;2023-05-28T11:08:46;100818.78;;;32.24;61.18
74474;BME280;62922;-6.168;106.796;2023-05-28T11:11:13;100822.44;;;32.24;62.06
74474;BME280;62922;-6.168;106.796;2023-05-28T11:13:42;100828.91;;;32.25;62.12
74474;BME280;62922;-6.168;106.796;2023-05-28T11:16:09;100825.94;;;32.21;62.17
74474;BME280;62922;-6.168;106.796;2023-05-28T11:18:35;100834.44;;;32.21;61.83
74474;BME280;62922;-6.168;106.796;2023-05-28T11:21:03;100835.22;;;32.22;62.63
74474;BME280;62922;-6.168;106.796;2023-05-28T11:23:29;100836.41;;;32.21;62.08
74474;BME280;62922;-6.168;106.796;2023-05-28T11:25:58;100844.88;;;32.21;62.13
74474;BME280;62922;-6.168;106.796;2023-05-28T11:28:24;100837.56;;;32.20;62.14
74474;BME280;62922;-6.168;106.796;2023-05-28T11:30:50;100847.22;;;32.19;62.45
74474;BME280;62922;-6.168;106.796;2023-05-28T11:33:17;100853.69;;;32.19;61.89
74474;BME280;62922;-6.168;106.796;2023-05-28T11:35:43;100856.53;;;32.19;62.53
74474;BME280;62922;-6.168;106.796;2023-05-28T11:38:09;100855.69;;;32.19;62.21
74474;BME280;62922;-6.168;106.796;2023-05-28T11:40:35;100853.69;;;32.19;62.26
74474;BME280;62922;-6.168;106.796;2023-05-28T11:43:01;100859.66;;;32.18;62.77
74474;BME280;62922;-6.168;106.796;2023-05-28T11:45:27;100868.97;;;32.18;62.72
74474;BME280;62922;-6.168;106.796;2023-05-28T11:47:53;100865.31;;;32.18;62.47
74474;BME280;62922;-6.168;106.796;2023-05-28T11:50:19;100878.63;;;32.17;62.86
74474;BME280;62922;-6.168;106.796;2023-05-28T11:52:47;100881.44;;;32.17;62.50
74474;BME280;62922;-6.168;106.796;2023-05-28T11:55:14;100891.06;;;32.16;62.97
74474;BME280;62922;-6.168;106.796;2023-05-28T11:57:49;100893.53;;;32.18;62.97
74474;BME280;62922;-6.168;106.796;2023-05-28T12:00:15;100893.09;;;32.16;63.12
74474;BME280;62922;-6.168;106.796;2023-05-28T12:02:45;100891.41;;;32.15;62.56
74474;BME280;62922;-6.168;106.796;2023-05-28T12:05:11;100901.56;;;32.16;63.15
74474;BME280;62922;-6.168;106.796;2023-05-28T12:07:37;100906.72;;;32.14;62.84
74474;BME280;62922;-6.168;106.796;2023-05-28T12:10:10;100901.88;;;32.14;63.07
74474;BME280;62922;-6.168;106.796;2023-05-28T12:15:05;100913.16;;;32.14;63.29
74474;BME280;62922;-6.168;106.796;2023-05-28T12:17:33;100921.97;;;32.13;62.77
74474;BME280;62922;-6.168;106.796;2023-05-28T12:20:04;100923.16;;;32.12;62.64
74474;BME280;62922;-6.168;106.796;2023-05-28T12:22:31;100934.09;;;32.13;63.01
74474;BME280;62922;-6.168;106.796;2023-05-28T12:24:57;100940.09;;;32.12;63.47
74474;BME280;62922;-6.168;106.796;2023-05-28T12:27:24;100942.94;;;32.12;63.00
74474;BME280;62922;-6.168;106.796;2023-05-28T12:29:50;100950.56;;;32.11;63.27
74474;BME280;62922;-6.168;106.796;2023-05-28T12:32:15;100948.91;;;32.10;63.56
74474;BME280;62922;-6.168;106.796;2023-05-28T12:34:41;100948.09;;;32.10;63.82
74474;BME280;62922;-6.168;106.796;2023-05-28T12:37:08;100949.22;;;32.09;63.68
74474;BME280;62922;-6.168;106.796;2023-05-28T12:39:34;100943.59;;;32.09;63.63
74474;BME280;62922;-6.168;106.796;2023-05-28T12:42:01;100949.56;;;32.07;63.84
74474;BME280;62922;-6.168;106.796;2023-05-28T12:44:27;100944.75;;;32.08;63.54
74474;BME280;62922;-6.168;106.796;2023-05-28T12:46:53;100956.41;;;32.06;63.43
74474;BME280;62922;-6.168;106.796;2023-05-28T12:49:19;100959.22;;;32.06;63.53
74474;BME280;62922;-6.168;106.796;2023-05-28T12:51:45;100964.03;;;32.06;63.38
74474;BME280;62922;-6.168;106.796;2023-05-28T12:54:11;100958.38;;;32.06;63.34
74474;BME280;62922;-6.168;106.796;2023-05-28T12:56:37;100960.38;;;32.05;63.46
74474;BME280;62922;-6.168;106.796;2023-05-28T12:59:03;100960.38;;;32.05;63.23
74474;BME280;62922;-6.168;106.796;2023-05-28T13:01:31;100967.69;;;32.06;63.57
74474;BME280;62922;-6.168;106.796;2023-05-28T13:03:57;100968.03;;;32.05;63.80
74474;BME280;62922;-6.168;106.796;2023-05-28T13:06:23;100971.66;;;32.05;64.06
74474;BME280;62922;-6.168;106.796;2023-05-28T13:08:49;100974.00;;;32.03;63.95
74474;BME280;62922;-6.168;106.796;2023-05-28T13:11:15;100978.84;;;32.03;63.83
74474;BME280;62922;-6.168;106.796;2023-05-28T13:13:41;100987.28;;;32.03;63.47
74474;BME280;62922;-6.168;106.796;2023-05-28T13:16:07;100992.09;;;32.02;64.22
74474;BME280;62922;-6.168;106.796;2023-05-28T13:18:33;100985.63;;;32.02;63.82
74474;BME280;62922;-6.168;106.796;2023-05-28T13:20:59;100993.25;;;32.01;64.34
74474;BME280;62922;-6.168;106.796;2023-05-28T13:23:24;100986.81;;;32.01;63.80
74474;BME280;62922;-6.168;106.796;2023-05-28T13:25:50;100990.44;;;32.01;64.41
74474;BME280;62922;-6.168;106.796;2023-05-28T13:28:16;101002.91;;;32.00;64.12
74474;BME280;62922;-6.168;106.796;2023-05-28T13:30:45;100997.59;;;31.99;64.27
74474;BME280;62922;-6.168;106.796;2023-05-28T13:33:10;100997.59;;;31.99;64.60
74474;BME280;62922;-6.168;106.796;2023-05-28T13:35:36;100995.47;;;31.96;64.62
74474;BME280;62922;-6.168;106.796;2023-05-28T13:38:02;100996.44;;;31.91;65.04
74474;BME280;62922;-6.168;106.796;2023-05-28T13:40:28;100999.28;;;31.91;65.10
74474;BME280;62922;-6.168;106.796;2023-05-28T13:42:55;100993.97;;;31.90;65.04
74474;BME280;62922;-6.168;106.796;2023-05-28T13:45:20;100985.50;;;31.90;64.81
74474;BME280;62922;-6.168;106.796;2023-05-28T13:47:49;100988.31;;;31.90;65.38
74474;BME280;62922;-6.168;106.796;2023-05-28T13:50:15;100990.31;;;31.89;65.46
74474;BME280;62922;-6.168;106.796;2023-05-28T13:52:42;100992.78;;;31.91;64.96
74474;BME280;62922;-6.168;106.796;2023-05-28T13:55:10;100984.66;;;31.89;65.20
74474;BME280;62922;-6.168;106.796;2023-05-28T13:57:36;100976.19;;;31.89;65.50
74474;BME280;62922;-6.168;106.796;2023-05-28T14:00:04;100975.84;;;31.91;65.33
74474;BME280;62922;-6.168;106.796;2023-05-28T14:02:32;100970.56;;;31.89;65.50
74474;BME280;62922;-6.168;106.796;2023-05-28T14:04:58;100976.19;;;31.89;65.17
74474;BME280;62922;-6.168;106.796;2023-05-28T14:07:24;100969.88;;;31.92;65.70
74474;BME280;62922;-6.168;106.796;2023-05-28T14:09:50;100966.06;;;31.97;65.54
74474;BME280;62922;-6.168;106.796;2023-05-28T14:12:16;100970.88;;;31.96;65.75
74474;BME280;62922;-6.168;106.796;2023-05-28T14:14:41;100965.22;;;31.96;66.13
74474;BME280;62922;-6.168;106.796;2023-05-28T14:17:07;100969.72;;;31.97;65.89
74474;BME280;62922;-6.168;106.796;2023-05-28T14:19:33;100960.41;;;31.97;65.53
74474;BME280;62922;-6.168;106.796;2023-05-28T14:21:59;100961.59;;;31.96;65.69
74474;BME280;62922;-6.168;106.796;2023-05-28T14:24:25;100959.56;;;31.96;66.44
74474;BME280;62922;-6.168;106.796;2023-05-28T14:26:51;100958.78;;;31.96;65.96
74474;BME280;62922;-6.168;106.796;2023-05-28T14:29:19;100958.78;;;31.96;66.00
74474;BME280;62922;-6.168;106.796;2023-05-28T14:31:45;100957.94;;;31.95;66.69
74474;BME280;62922;-6.168;106.796;2023-05-28T14:34:11;100959.91;;;31.95;66.56
74474;BME280;62922;-6.168;106.796;2023-05-28T14:36:37;100951.78;;;31.93;66.17
74474;BME280;62922;-6.168;106.796;2023-05-28T14:39:03;100963.06;;;31.93;65.90
74474;BME280;62922;-6.168;106.796;2023-05-28T14:41:29;100963.06;;;31.93;66.46
74474;BME280;62922;-6.168;106.796;2023-05-28T14:43:55;100968.72;;;31.93;66.43
74474;BME280;62922;-6.168;106.796;2023-05-28T14:46:21;100961.41;;;31.92;66.47
74474;BME280;62922;-6.168;106.796;2023-05-28T14:48:47;100954.13;;;31.91;66.23
74474;BME280;62922;-6.168;106.796;2023-05-28T14:51:15;100964.56;;;31.91;66.60
74474;BME280;62922;-6.168;106.796;2023-05-28T14:53:40;100956.09;;;31.91;66.41
74474;BME280;62922;-6.168;106.796;2023-05-28T14:56:06;100957.28;;;31.90;66.35
74474;BME280;62922;-6.168;106.796;2023-05-28T14:58:32;100955.56;;;31.89;66.46
74474;BME280;62922;-6.168;106.796;2023-05-28T15:00:58;100964.03;;;31.89;66.04
74474;BME280;62922;-6.168;106.796;2023-05-28T15:05:53;100966.38;;;31.87;66.49
74474;BME280;62922;-6.168;106.796;2023-05-28T15:08:19;100972.84;;;31.87;65.96
74474;BME280;62922;-6.168;106.796;2023-05-28T15:10:47;100973.53;;;31.84;66.37
74474;BME280;62922;-6.168;106.796;2023-05-28T15:13:13;100972.34;;;31.85;65.88
74474;BME280;62922;-6.168;106.796;2023-05-28T15:15:42;100971.53;;;31.85;66.42
74474;BME280;62922;-6.168;106.796;2023-05-28T15:18:08;100967.88;;;31.84;66.47
